createdAt,value
2023-03-16T00:00:21.611Z,93.43
2023-03-16T00:03:10.503Z,93.42
2023-03-16T00:05:38.552Z,93.41
2023-03-16T00:08:05.886Z,93.71
2023-03-16T00:10:33.434Z,94.48
2023-03-16T00:13:02.823Z,94.95
2023-03-16T00:15:30.405Z,94.93
2023-03-16T00:17:57.608Z,94.96
2023-03-16T00:20:25.458Z,95.82
2023-03-16T00:22:52.944Z,95.78
2023-03-16T00:25:20.479Z,95.39
2023-03-16T00:27:47.765Z,96.13
2023-03-16T00:30:15.434Z,96.83
2023-03-16T00:32:42.759Z,97.10
2023-03-16T00:35:10.790Z,96.50
2023-03-16T00:37:39.722Z,96.43
2023-03-16T00:40:09.123Z,96.55
2023-03-16T00:42:36.443Z,96.88
2023-03-16T00:45:05.969Z,97.31
2023-03-16T00:47:35.572Z,98.28
2023-03-16T00:50:03.327Z,99.44
2023-03-16T00:52:30.799Z,98.60
2023-03-16T00:54:58.719Z,98.14
2023-03-16T00:57:28.733Z,99.01
2023-03-16T00:59:56.555Z,98.43
2023-03-16T01:02:24.844Z,98.88
2023-03-16T01:04:54.910Z,99.25
2023-03-16T01:07:23.054Z,99.19
2023-03-16T01:09:51.657Z,99.39
2023-03-16T01:12:19.802Z,99.44
2023-03-16T01:14:48.002Z,100.00
2023-03-16T01:17:17.336Z,100.00
2023-03-16T01:19:46.122Z,100.00
2023-03-16T01:22:14.747Z,100.00
2023-03-16T01:24:45.330Z,100.00
2023-03-16T01:27:13.730Z,100.00
2023-03-16T01:29:43.750Z,100.00
2023-03-16T01:32:12.227Z,100.00
2023-03-16T01:34:40.096Z,100.00
2023-03-16T01:37:07.448Z,100.00
2023-03-16T01:39:55.550Z,100.00
2023-03-16T01:42:22.986Z,100.00
2023-03-16T01:44:57.008Z,100.00
2023-03-16T01:47:29.487Z,100.00
2023-03-16T01:49:57.624Z,100.00
2023-03-16T01:52:34.077Z,100.00
2023-03-16T01:55:09.332Z,100.00
2023-03-16T01:57:42.725Z,100.00
2023-03-16T02:00:22.087Z,100.00
2023-03-16T02:03:18.514Z,100.00
2023-03-16T02:05:57.781Z,100.00
2023-03-16T02:08:27.750Z,100.00
2023-03-16T02:10:56.939Z,100.00
2023-03-16T02:13:36.764Z,100.00
2023-03-16T02:16:07.274Z,100.00
2023-03-16T02:18:35.738Z,100.00
2023-03-16T02:21:28.916Z,100.00
2023-03-16T02:23:56.329Z,100.00
2023-03-16T02:26:48.668Z,100.00
2023-03-16T02:29:59.484Z,100.00
2023-03-16T02:32:30.714Z,100.00
2023-03-16T02:34:59.917Z,100.00
2023-03-16T02:37:27.969Z,100.00
2023-03-16T02:39:55.251Z,100.00
2023-03-16T02:42:26.560Z,100.00
2023-03-16T02:44:59.259Z,100.00
2023-03-16T02:47:31.529Z,100.00
2023-03-16T02:49:58.805Z,100.00
2023-03-16T02:52:26.964Z,100.00
2023-03-16T02:54:54.499Z,100.00
2023-03-16T02:57:22.282Z,100.00
2023-03-16T02:59:49.742Z,100.00
2023-03-16T03:02:17.329Z,100.00
2023-03-16T03:04:46.377Z,100.00
2023-03-16T03:07:15.911Z,100.00
2023-03-16T03:10:03.333Z,100.00
2023-03-16T03:12:33.600Z,100.00
2023-03-16T03:15:00.845Z,100.00
2023-03-16T03:17:33.822Z,100.00
2023-03-16T03:20:16.326Z,100.00
2023-03-16T03:22:45.386Z,100.00
2023-03-16T03:25:14.969Z,100.00
2023-03-16T03:27:44.469Z,100.00
2023-03-16T03:30:18.961Z,100.00
2023-03-16T03:32:49.261Z,100.00
2023-03-16T03:35:19.905Z,100.00
2023-03-16T03:37:48.626Z,100.00
2023-03-16T03:40:18.736Z,100.00
2023-03-16T03:42:49.165Z,100.00
2023-03-16T03:45:16.668Z,100.00
2023-03-16T03:47:44.909Z,100.00
2023-03-16T03:50:17.635Z,100.00
2023-03-16T03:52:53.140Z,100.00
2023-03-16T03:55:20.687Z,100.00
2023-03-16T03:57:48.210Z,100.00
2023-03-16T04:00:16.063Z,100.00
2023-03-16T04:02:45.285Z,100.00
2023-03-16T04:05:20.684Z,100.00
2023-03-16T04:07:55.103Z,100.00
2023-03-16T04:10:31.285Z,100.00
2023-03-16T04:13:00.646Z,100.00
2023-03-16T04:15:33.073Z,100.00
2023-03-16T04:18:09.383Z,100.00
2023-03-16T04:20:37.217Z,100.00
2023-03-16T04:23:05.370Z,100.00
2023-03-16T04:25:38.478Z,100.00
2023-03-16T04:28:06.690Z,100.00
2023-03-16T04:30:35.881Z,100.00
2023-03-16T04:33:15.884Z,100.00
2023-03-16T04:35:46.176Z,100.00
2023-03-16T04:38:15.697Z,100.00
2023-03-16T04:40:52.551Z,100.00
2023-03-16T04:43:23.780Z,100.00
2023-03-16T04:45:55.637Z,100.00
2023-03-16T04:48:28.921Z,100.00
2023-03-16T04:50:56.524Z,100.00
2023-03-16T04:53:25.346Z,100.00
2023-03-16T04:55:59.315Z,100.00
2023-03-16T04:58:27.143Z,100.00
2023-03-16T05:00:55.844Z,100.00
2023-03-16T05:03:27.995Z,100.00
2023-03-16T05:05:55.427Z,100.00
2023-03-16T05:08:24.134Z,100.00
2023-03-16T05:11:00.323Z,100.00
2023-03-16T05:13:34.381Z,100.00
2023-03-16T05:16:01.992Z,100.00
2023-03-16T05:18:33.948Z,100.00
2023-03-16T05:21:02.196Z,100.00
2023-03-16T05:23:40.942Z,100.00
2023-03-16T05:26:09.140Z,100.00
2023-03-16T05:28:38.559Z,100.00
2023-03-16T05:31:09.999Z,100.00
2023-03-16T05:33:45.209Z,100.00
2023-03-16T05:36:17.696Z,100.00
2023-03-16T05:38:48.206Z,100.00
2023-03-16T05:41:25.013Z,100.00
2023-03-16T05:44:10.739Z,100.00
2023-03-16T05:47:07.354Z,100.00
2023-03-16T05:49:39.706Z,100.00
2023-03-16T05:52:12.588Z,99.63
2023-03-16T05:54:40.191Z,99.60
2023-03-16T05:57:10.081Z,95.44
2023-03-16T05:59:38.290Z,83.87
2023-03-16T06:02:05.910Z,72.96
2023-03-16T06:04:34.309Z,62.85
2023-03-16T06:07:01.525Z,60.14
2023-03-16T06:09:30.165Z,66.70
2023-03-16T06:11:57.730Z,71.80
2023-03-16T06:14:26.265Z,78.45
2023-03-16T06:16:55.439Z,81.89
2023-03-16T06:19:23.140Z,82.93
2023-03-16T06:21:55.575Z,84.31
2023-03-16T06:24:23.133Z,86.54
2023-03-16T06:26:51.713Z,86.12
2023-03-16T06:29:21.014Z,72.09
2023-03-16T06:31:48.449Z,55.84
2023-03-16T06:34:16.063Z,56.75
2023-03-16T06:36:43.547Z,51.94
2023-03-16T06:39:14.468Z,46.80
2023-03-16T06:41:45.475Z,48.89
2023-03-16T06:44:15.658Z,51.79
2023-03-16T06:46:53.534Z,53.59
2023-03-16T06:49:21.362Z,56.95
2023-03-16T06:51:49.458Z,62.18
2023-03-16T06:54:17.273Z,63.18
2023-03-16T06:56:46.315Z,65.36
2023-03-16T06:59:14.017Z,69.20
2023-03-16T07:01:42.374Z,68.04
2023-03-16T07:04:10.061Z,71.49
2023-03-16T07:06:37.366Z,71.00
2023-03-16T07:09:05.663Z,64.72
2023-03-16T07:11:33.167Z,61.23
2023-03-16T07:14:01.659Z,54.53
2023-03-16T07:16:32.282Z,50.89
2023-03-16T07:19:02.838Z,47.95
2023-03-16T07:21:39.216Z,48.76
2023-03-16T07:24:11.091Z,53.00
2023-03-16T07:26:39.159Z,55.21
2023-03-16T07:29:07.910Z,58.69
2023-03-16T07:31:36.078Z,59.37
2023-03-16T07:34:08.882Z,57.83
2023-03-16T07:36:41.708Z,54.30
2023-03-16T07:39:09.914Z,47.48
2023-03-16T07:41:37.219Z,43.91
2023-03-16T07:44:21.751Z,39.66
2023-03-16T07:46:49.777Z,42.90
2023-03-16T07:49:17.845Z,44.33
2023-03-16T07:51:46.938Z,44.25
2023-03-16T07:54:15.953Z,42.90
2023-03-16T07:56:49.434Z,43.38
2023-03-16T07:59:52.571Z,45.00
2023-03-16T08:02:21.708Z,46.52
2023-03-16T08:04:50.311Z,48.13
2023-03-16T08:07:18.489Z,47.70
2023-03-16T08:09:58.092Z,47.51
2023-03-16T08:12:33.812Z,46.91
2023-03-16T08:15:02.289Z,48.79
2023-03-16T08:17:32.296Z,49.49
2023-03-16T08:20:01.821Z,49.06
2023-03-16T08:22:30.108Z,50.27
2023-03-16T08:24:58.257Z,47.73
2023-03-16T08:27:26.123Z,49.11
2023-03-16T08:30:04.597Z,49.27
2023-03-16T08:32:32.969Z,48.20
2023-03-16T08:35:00.757Z,47.04
2023-03-16T08:37:28.991Z,46.16
2023-03-16T08:39:57.863Z,47.04
2023-03-16T08:42:25.414Z,47.62
2023-03-16T08:45:00.323Z,49.14
2023-03-16T08:47:29.834Z,48.69
2023-03-16T08:49:58.830Z,49.75
2023-03-16T08:52:26.078Z,50.43
2023-03-16T08:55:03.108Z,50.94
2023-03-16T08:57:33.475Z,51.28
2023-03-16T09:00:01.599Z,51.48
2023-03-16T09:02:29.079Z,50.48
2023-03-16T09:04:57.220Z,50.35
2023-03-16T09:07:24.543Z,49.68
2023-03-16T09:09:52.784Z,49.55
2023-03-16T09:12:20.761Z,47.56
2023-03-16T09:14:49.096Z,46.31
2023-03-16T09:17:16.611Z,47.29
2023-03-16T09:19:53.315Z,46.56
2023-03-16T09:22:22.503Z,46.00
2023-03-16T09:24:50.194Z,45.70
2023-03-16T09:27:19.010Z,44.94
2023-03-16T09:29:46.908Z,47.72
2023-03-16T09:32:14.636Z,50.26
2023-03-16T09:34:42.688Z,52.00
2023-03-16T09:37:10.367Z,54.11
2023-03-16T09:39:38.390Z,54.57
2023-03-16T09:42:35.181Z,54.77
2023-03-16T09:45:38.613Z,55.29
2023-03-16T09:48:06.667Z,54.89
2023-03-16T09:50:48.448Z,57.15
2023-03-16T09:53:35.385Z,55.55
2023-03-16T09:56:10.630Z,53.89
2023-03-16T09:58:38.456Z,51.98
2023-03-16T10:01:43.163Z,51.07
2023-03-16T10:04:33.740Z,50.40
2023-03-16T10:07:07.582Z,53.67
2023-03-16T10:09:47.532Z,55.36
2023-03-16T10:12:16.122Z,52.45
2023-03-16T10:14:57.752Z,52.30
2023-03-16T10:17:41.700Z,52.43
2023-03-16T10:20:17.801Z,54.72
2023-03-16T10:22:47.515Z,57.64
2023-03-16T10:25:26.892Z,55.08
2023-03-16T10:27:54.652Z,55.62
2023-03-16T10:30:24.688Z,56.90
2023-03-16T10:32:52.793Z,55.08
2023-03-16T10:35:41.886Z,55.00
2023-03-16T10:38:26.555Z,54.65
2023-03-16T10:40:54.604Z,54.73
2023-03-16T10:43:22.805Z,55.53
2023-03-16T10:45:50.145Z,57.11
2023-03-16T10:48:20.529Z,57.84
2023-03-16T10:50:54.882Z,60.25
2023-03-16T10:53:30.065Z,61.82
2023-03-16T10:55:59.448Z,60.83
2023-03-16T10:58:30.949Z,61.29
2023-03-16T11:00:58.806Z,63.86
2023-03-16T11:03:32.403Z,61.13
2023-03-16T11:06:02.586Z,57.83
2023-03-16T11:08:37.480Z,57.07
2023-03-16T11:11:11.962Z,55.13
2023-03-16T11:13:45.441Z,52.57
2023-03-16T11:16:49.749Z,52.30
2023-03-16T11:19:20.761Z,50.74
2023-03-16T11:21:55.278Z,50.12
2023-03-16T11:24:49.148Z,48.82
2023-03-16T11:27:25.151Z,47.97
2023-03-16T11:30:05.507Z,47.53
2023-03-16T11:32:36.864Z,48.41
2023-03-16T11:35:23.727Z,47.33
2023-03-16T11:38:18.323Z,45.86
2023-03-16T11:40:58.487Z,48.26
2023-03-16T11:43:53.363Z,49.95
2023-03-16T11:46:23.664Z,50.33
2023-03-16T11:49:09.424Z,51.26
2023-03-16T11:51:42.140Z,50.21
2023-03-16T11:54:37.274Z,49.55
2023-03-16T11:57:31.520Z,49.44
2023-03-16T12:00:18.380Z,49.51
2023-03-16T12:03:15.259Z,52.97
2023-03-16T12:06:22.451Z,55.63
2023-03-16T12:09:06.761Z,53.27
2023-03-16T12:11:46.160Z,53.54
2023-03-16T12:14:27.048Z,55.73
2023-03-16T12:17:10.004Z,58.58
2023-03-16T12:20:07.563Z,60.40
2023-03-16T12:22:48.434Z,65.36
2023-03-16T12:25:39.671Z,67.60
2023-03-16T12:28:23.993Z,71.81
2023-03-16T12:31:44.281Z,71.70
2023-03-16T12:34:18.655Z,75.64
2023-03-16T12:36:58.028Z,73.04
2023-03-16T12:40:09.429Z,74.47
2023-03-16T12:42:55.627Z,75.21
2023-03-16T12:45:42.150Z,74.03
2023-03-16T12:48:30.284Z,73.43
2023-03-16T12:51:03.277Z,73.03
2023-03-16T12:53:42.380Z,76.43
2023-03-16T12:56:17.706Z,82.13
2023-03-16T12:58:51.027Z,85.41
2023-03-16T13:01:25.847Z,89.53
2023-03-16T13:04:01.428Z,90.22
2023-03-16T13:06:36.469Z,85.39
2023-03-16T13:09:07.360Z,85.52
2023-03-16T13:11:45.814Z,82.48
2023-03-16T13:14:33.782Z,82.36
2023-03-16T13:17:16.217Z,82.77
2023-03-16T13:19:47.832Z,85.19
2023-03-16T13:22:22.500Z,86.78
2023-03-16T13:24:53.615Z,87.84
2023-03-16T13:27:27.296Z,86.71
2023-03-16T13:30:02.255Z,84.73
2023-03-16T13:32:33.928Z,84.80
2023-03-16T13:35:02.492Z,83.51
2023-03-16T13:37:30.713Z,84.31
2023-03-16T13:40:01.038Z,84.12
2023-03-16T13:42:33.523Z,86.09
2023-03-16T13:45:13.475Z,85.15
2023-03-16T13:47:44.256Z,85.84
2023-03-16T13:50:13.843Z,87.66
2023-03-16T13:52:44.232Z,87.16
2023-03-16T13:55:22.328Z,86.15
2023-03-16T13:57:50.033Z,86.09
2023-03-16T14:00:27.634Z,86.32
2023-03-16T14:03:00.290Z,89.79
2023-03-16T14:05:35.268Z,90.07
2023-03-16T14:08:04.960Z,89.22
2023-03-16T14:10:35.477Z,88.77
2023-03-16T14:13:22.434Z,87.22
2023-03-16T14:15:50.706Z,88.42
2023-03-16T14:18:22.869Z,89.34
2023-03-16T14:20:55.672Z,88.33
2023-03-16T14:23:33.610Z,88.66
2023-03-16T14:26:05.630Z,89.23
2023-03-16T14:28:34.250Z,89.45
2023-03-16T14:31:10.015Z,91.16
2023-03-16T14:33:42.072Z,90.09
2023-03-16T14:36:19.373Z,91.40
2023-03-16T14:38:49.819Z,96.07
2023-03-16T14:41:26.672Z,94.96
2023-03-16T14:44:02.149Z,92.37
2023-03-16T14:46:38.181Z,90.80
2023-03-16T14:49:24.459Z,92.25
2023-03-16T14:51:55.478Z,93.44
2023-03-16T14:54:23.086Z,93.05
2023-03-16T14:56:53.206Z,92.25
2023-03-16T14:59:21.623Z,92.73
2023-03-16T15:01:50.945Z,93.09
2023-03-16T15:04:25.788Z,94.82
2023-03-16T15:06:54.201Z,94.81
2023-03-16T15:09:37.302Z,96.25
2023-03-16T15:12:14.261Z,95.96
2023-03-16T15:14:59.922Z,96.97
2023-03-16T15:17:27.746Z,95.38
2023-03-16T15:19:54.982Z,94.01
2023-03-16T15:22:31.062Z,94.64
2023-03-16T15:25:00.284Z,94.23
2023-03-16T15:27:33.424Z,93.99
2023-03-16T15:30:00.956Z,93.51
2023-03-16T15:32:28.550Z,93.12
2023-03-16T15:34:55.912Z,92.88
2023-03-16T15:37:27.576Z,98.78
2023-03-16T15:39:55.002Z,99.86
2023-03-16T15:42:22.793Z,100.00
2023-03-16T15:44:50.032Z,100.00
2023-03-16T15:47:17.704Z,99.63
2023-03-16T15:49:48.469Z,97.76
2023-03-16T15:52:33.363Z,94.47
2023-03-16T15:55:04.701Z,93.41
2023-03-16T15:57:32.362Z,93.47
2023-03-16T16:00:00.324Z,94.71
2023-03-16T16:02:32.284Z,96.17
2023-03-16T16:04:59.692Z,98.18
2023-03-16T16:07:27.517Z,97.03
2023-03-16T16:09:54.741Z,95.71
2023-03-16T16:12:27.031Z,95.41
2023-03-16T16:14:56.467Z,93.84
2023-03-16T16:17:36.519Z,94.69
2023-03-16T16:20:32.744Z,93.86
2023-03-16T16:23:03.050Z,94.21
2023-03-16T16:25:40.366Z,95.67
2023-03-16T16:28:17.665Z,95.69
2023-03-16T16:30:45.142Z,95.79
2023-03-16T16:33:25.911Z,95.27
2023-03-16T16:35:54.803Z,96.78
2023-03-16T16:38:23.763Z,96.68
2023-03-16T16:40:53.492Z,96.46
2023-03-16T16:43:47.030Z,97.62
2023-03-16T16:46:19.418Z,97.47
2023-03-16T16:49:14.258Z,97.90
2023-03-16T16:51:42.748Z,99.07
2023-03-16T16:54:19.590Z,99.67
2023-03-16T16:56:49.010Z,99.79
2023-03-16T16:59:18.507Z,99.67
2023-03-16T17:01:51.856Z,100.00
2023-03-16T17:04:26.128Z,100.00
2023-03-16T17:06:57.616Z,100.00
2023-03-16T17:09:27.256Z,100.00
2023-03-16T17:11:57.123Z,100.00
2023-03-16T17:14:27.740Z,100.00
2023-03-16T17:16:55.621Z,100.00
2023-03-16T17:19:28.206Z,100.00
2023-03-16T17:21:58.479Z,100.00
2023-03-16T17:24:26.917Z,100.00
2023-03-16T17:26:59.188Z,100.00
2023-03-16T17:29:32.382Z,100.00
2023-03-16T17:32:01.861Z,100.00
2023-03-16T17:34:32.430Z,100.00
2023-03-16T17:36:59.667Z,100.00
2023-03-16T17:39:34.634Z,100.00
2023-03-16T17:42:09.897Z,100.00
2023-03-16T17:44:44.350Z,100.00
2023-03-16T17:47:21.942Z,100.00
2023-03-16T17:49:50.888Z,100.00
2023-03-16T17:52:20.699Z,100.00
2023-03-16T17:54:49.197Z,100.00
2023-03-16T17:57:32.053Z,100.00
2023-03-16T18:00:01.836Z,100.00
2023-03-16T18:02:51.542Z,100.00
2023-03-16T18:05:28.005Z,100.00
2023-03-16T18:07:59.471Z,100.00
2023-03-16T18:10:29.994Z,100.00
2023-03-16T18:13:07.665Z,100.00
2023-03-16T18:15:39.594Z,100.00
2023-03-16T18:18:10.478Z,100.00
2023-03-16T18:20:38.273Z,100.00
2023-03-16T18:23:23.841Z,100.00
2023-03-16T18:25:54.762Z,100.00
2023-03-16T18:28:23.290Z,100.00
2023-03-16T18:30:52.902Z,100.00
2023-03-16T18:33:31.084Z,100.00
2023-03-16T18:36:02.571Z,100.00
2023-03-16T18:38:39.371Z,100.00
2023-03-16T18:41:22.725Z,100.00
2023-03-16T18:43:52.066Z,100.00
2023-03-16T18:46:28.290Z,100.00
2023-03-16T18:48:59.128Z,100.00
2023-03-16T18:51:28.225Z,100.00
2023-03-16T18:53:56.086Z,100.00
2023-03-16T18:56:27.240Z,100.00
2023-03-16T18:58:56.258Z,100.00
2023-03-16T19:01:32.484Z,100.00
2023-03-16T19:04:01.673Z,100.00
2023-03-16T19:06:32.470Z,100.00
2023-03-16T19:09:14.310Z,100.00
2023-03-16T19:11:43.599Z,100.00
2023-03-16T19:14:30.824Z,100.00
2023-03-16T19:16:59.304Z,100.00
2023-03-16T19:19:27.502Z,100.00
2023-03-16T19:22:12.046Z,100.00
2023-03-16T19:24:54.398Z,100.00
2023-03-16T19:27:31.608Z,100.00
2023-03-16T19:29:58.981Z,100.00
2023-03-16T19:32:26.630Z,100.00
2023-03-16T19:34:54.091Z,100.00
2023-03-16T19:37:23.937Z,100.00
2023-03-16T19:39:51.659Z,100.00
2023-03-16T19:42:28.508Z,100.00
2023-03-16T19:44:56.481Z,100.00
2023-03-16T19:47:31.071Z,100.00
2023-03-16T19:49:59.182Z,100.00
2023-03-16T19:52:28.341Z,100.00
2023-03-16T19:54:55.932Z,100.00
2023-03-16T19:57:24.152Z,100.00
2023-03-16T19:59:57.583Z,100.00
2023-03-16T20:02:35.585Z,100.00
2023-03-16T20:05:02.881Z,100.00
2023-03-16T20:07:31.114Z,100.00
2023-03-16T20:09:58.649Z,100.00
2023-03-16T20:12:28.183Z,100.00
2023-03-16T20:14:57.673Z,100.00
2023-03-16T20:17:28.432Z,100.00
2023-03-16T20:19:57.468Z,100.00
2023-03-16T20:22:28.778Z,100.00
2023-03-16T20:24:58.127Z,100.00
2023-03-16T20:27:28.062Z,100.00
2023-03-16T20:29:55.805Z,100.00
2023-03-16T20:32:28.087Z,100.00
2023-03-16T20:34:55.833Z,100.00
2023-03-16T20:37:26.118Z,100.00
2023-03-16T20:39:55.887Z,100.00
2023-03-16T20:42:32.366Z,100.00
2023-03-16T20:45:00.385Z,100.00
2023-03-16T20:47:28.592Z,100.00
2023-03-16T20:50:00.338Z,100.00
2023-03-16T20:52:30.832Z,100.00
2023-03-16T20:54:58.842Z,100.00
2023-03-16T20:57:29.164Z,100.00
2023-03-16T20:59:57.156Z,100.00
2023-03-16T21:02:28.866Z,100.00
2023-03-16T21:04:58.111Z,100.00
2023-03-16T21:07:26.207Z,100.00
2023-03-16T21:09:53.620Z,100.00
2023-03-16T21:12:28.107Z,100.00
2023-03-16T21:14:56.262Z,100.00
2023-03-16T21:17:32.797Z,100.00
2023-03-16T21:20:00.397Z,100.00
2023-03-16T21:22:32.864Z,100.00
2023-03-16T21:25:00.496Z,100.00
2023-03-16T21:27:33.401Z,100.00
2023-03-16T21:30:17.462Z,100.00
2023-03-16T21:32:45.093Z,100.00
2023-03-16T21:35:16.440Z,100.00
2023-03-16T21:37:45.620Z,100.00
2023-03-16T21:40:18.176Z,100.00
2023-03-16T21:42:46.950Z,100.00
2023-03-16T21:45:15.083Z,100.00
2023-03-16T21:47:43.415Z,100.00
2023-03-16T21:50:28.085Z,100.00
2023-03-16T21:52:55.806Z,100.00
2023-03-16T21:55:27.096Z,100.00
2023-03-16T21:57:55.633Z,100.00
2023-03-16T22:00:25.355Z,100.00
2023-03-16T22:02:55.220Z,100.00
2023-03-16T22:05:36.550Z,100.00
2023-03-16T22:08:18.895Z,100.00
2023-03-16T22:10:46.991Z,100.00
2023-03-16T22:13:14.902Z,100.00
2023-03-16T22:15:43.699Z,100.00
2023-03-16T22:18:34.114Z,100.00
2023-03-16T22:21:20.481Z,100.00
2023-03-16T22:23:48.340Z,100.00
2023-03-16T22:26:18.632Z,100.00
2023-03-16T22:28:47.032Z,100.00
2023-03-16T22:31:18.849Z,100.00
2023-03-16T22:33:48.748Z,100.00
2023-03-16T22:36:21.887Z,100.00
2023-03-16T22:38:57.199Z,100.00
2023-03-16T22:41:24.695Z,100.00
2023-03-16T22:43:52.804Z,100.00
2023-03-16T22:46:26.209Z,100.00
2023-03-16T22:48:55.119Z,100.00
2023-03-16T22:51:37.971Z,100.00
2023-03-16T22:54:11.309Z,100.00
2023-03-16T22:56:46.998Z,100.00
2023-03-16T22:59:20.320Z,100.00
2023-03-16T23:01:49.924Z,100.00
2023-03-16T23:04:30.490Z,100.00
2023-03-16T23:06:58.516Z,100.00
2023-03-16T23:09:26.390Z,100.00
2023-03-16T23:11:56.017Z,100.00
2023-03-16T23:14:27.317Z,100.00
2023-03-16T23:16:54.961Z,100.00
2023-03-16T23:19:24.802Z,100.00
2023-03-16T23:21:59.766Z,100.00
2023-03-16T23:24:27.378Z,100.00
2023-03-16T23:26:55.540Z,100.00
2023-03-16T23:29:23.866Z,100.00
2023-03-16T23:31:51.427Z,100.00
2023-03-16T23:34:21.466Z,100.00
2023-03-16T23:36:49.823Z,100.00
2023-03-16T23:39:17.703Z,100.00
2023-03-16T23:41:47.991Z,100.00
2023-03-16T23:44:19.385Z,100.00
2023-03-16T23:46:47.461Z,100.00
2023-03-16T23:49:28.952Z,100.00
2023-03-16T23:51:57.856Z,100.00
2023-03-16T23:54:28.548Z,100.00
2023-03-16T23:56:56.267Z,100.00
2023-03-16T23:59:24.482Z,100.00
